createdAt,value
2019-02-20T00:03:41.980Z,-1.61
2019-02-20T00:06:08.209Z,-1.37
2019-02-20T00:08:34.447Z,-1.22
2019-02-20T00:11:00.679Z,-1.02
2019-02-20T00:13:26.908Z,-0.99
2019-02-20T00:15:53.149Z,-0.96
2019-02-20T00:18:19.383Z,-0.93
2019-02-20T00:21:05.392Z,-0.92
2019-02-20T00:23:31.623Z,-0.98
2019-02-20T00:25:57.871Z,-0.86
2019-02-20T00:28:24.115Z,-0.72
2019-02-20T00:30:50.361Z,-0.75
2019-02-20T00:33:16.595Z,-0.73
2019-02-20T00:35:42.851Z,-0.67
2019-02-20T00:38:09.094Z,-0.68
2019-02-20T00:40:35.333Z,-1.00
2019-02-20T00:43:01.602Z,-0.77
2019-02-20T00:45:47.597Z,-0.77
2019-02-20T00:48:33.580Z,-0.85
2019-02-20T00:51:19.635Z,-1.01
2019-02-20T00:56:33.482Z,-1.61
2019-02-20T00:58:59.713Z,-1.77
2019-02-20T01:01:25.954Z,-1.89
2019-02-20T01:03:52.216Z,-2.04
2019-02-20T01:06:18.459Z,-2.23
2019-02-20T01:08:44.690Z,-2.39
2019-02-20T01:11:10.934Z,-2.48
2019-02-20T01:13:37.174Z,-2.55
2019-02-20T01:16:03.582Z,-2.64
2019-02-20T01:18:29.853Z,-2.66
2019-02-20T01:20:56.098Z,-2.70
2019-02-20T01:23:22.348Z,-2.76
2019-02-20T01:25:48.592Z,-2.86
2019-02-20T01:28:14.819Z,-2.92
2019-02-20T01:30:41.061Z,-2.98
2019-02-20T01:33:07.292Z,-3.05
2019-02-20T01:35:33.517Z,-3.21
2019-02-20T01:37:59.772Z,-3.36
2019-02-20T01:40:25.989Z,-3.42
2019-02-20T01:42:52.232Z,-3.50
2019-02-20T01:45:18.490Z,-3.60
2019-02-20T01:47:44.726Z,-3.67
2019-02-20T01:50:10.972Z,-3.74
2019-02-20T01:52:37.215Z,-3.83
2019-02-20T01:58:00.231Z,-4.03
2019-02-20T02:00:26.464Z,-4.17
2019-02-20T02:02:52.711Z,-4.28
2019-02-20T02:05:18.966Z,-4.34
2019-02-20T02:07:45.200Z,-4.47
2019-02-20T02:10:11.438Z,-5.30
2019-02-20T02:12:37.689Z,-4.59
2019-02-20T02:18:17.654Z,-4.80
2019-02-20T02:21:25.216Z,-4.94
2019-02-20T02:23:51.503Z,-4.99
2019-02-20T02:26:17.719Z,-5.07
2019-02-20T02:28:43.965Z,-5.16
2019-02-20T02:31:10.217Z,-5.24
2019-02-20T02:33:36.465Z,-5.28
2019-02-20T02:36:02.721Z,-5.36
2019-02-20T02:38:28.959Z,-5.48
2019-02-20T02:40:55.179Z,-5.56
2019-02-20T02:43:21.426Z,-5.59
2019-02-20T02:45:47.651Z,-5.70
2019-02-20T02:48:13.888Z,-5.78
2019-02-20T02:50:40.128Z,-5.82
2019-02-20T02:53:06.372Z,-5.94
2019-02-20T02:55:32.610Z,-5.97
2019-02-20T02:57:58.851Z,-6.05
2019-02-20T03:00:25.075Z,-6.06
2019-02-20T03:02:51.318Z,-6.05
2019-02-20T03:05:17.568Z,-6.10
2019-02-20T03:07:43.817Z,-6.15
2019-02-20T03:10:10.050Z,-6.16
2019-02-20T03:12:36.293Z,-6.21
2019-02-20T03:15:43.848Z,-6.27
2019-02-20T03:18:10.095Z,-6.22
2019-02-20T03:20:36.341Z,-6.33
2019-02-20T03:23:02.596Z,-6.35
2019-02-20T03:25:28.841Z,-6.34
2019-02-20T03:27:55.084Z,-6.38
2019-02-20T03:30:21.336Z,-6.44
2019-02-20T03:32:47.620Z,-6.51
2019-02-20T03:35:13.873Z,-6.53
2019-02-20T03:37:40.071Z,-6.59
2019-02-20T03:40:47.644Z,-6.74
2019-02-20T03:43:13.892Z,-6.80
2019-02-20T03:45:40.140Z,-7.55
2019-02-20T03:48:06.378Z,-6.83
2019-02-20T03:50:32.634Z,-6.91
2019-02-20T03:52:58.895Z,-6.91
2019-02-20T03:56:06.443Z,-6.94
2019-02-20T03:58:33.341Z,-7.02
2019-02-20T04:03:35.325Z,-7.12
2019-02-20T04:06:01.593Z,-7.21
2019-02-20T04:08:27.831Z,-7.25
2019-02-20T04:10:54.085Z,-7.24
2019-02-20T04:13:20.340Z,-7.19
2019-02-20T04:15:46.599Z,-7.25
2019-02-20T04:18:12.822Z,-7.25
2019-02-20T04:20:39.078Z,-7.33
2019-02-20T04:23:05.296Z,-7.38
2019-02-20T04:25:31.548Z,-7.27
2019-02-20T04:27:57.783Z,-7.37
2019-02-20T04:30:24.028Z,-7.42
2019-02-20T04:32:50.255Z,-7.41
2019-02-20T04:35:16.505Z,-7.44
2019-02-20T04:37:42.739Z,-7.41
2019-02-20T04:40:08.989Z,-7.45
2019-02-20T04:42:35.219Z,-7.46
2019-02-20T04:45:01.480Z,-7.44
2019-02-20T04:47:27.724Z,-7.43
2019-02-20T04:49:53.990Z,-7.42
2019-02-20T04:52:20.318Z,-8.59
2019-02-20T04:54:46.593Z,-7.54
2019-02-20T04:57:12.836Z,-7.50
2019-02-20T04:59:39.075Z,-7.56
2019-02-20T05:02:05.336Z,-7.53
2019-02-20T05:04:31.581Z,-7.58
2019-02-20T05:06:57.971Z,-9.19
2019-02-20T05:09:24.253Z,-7.47
2019-02-20T05:11:50.540Z,-7.57
2019-02-20T05:14:16.816Z,-7.49
2019-02-20T05:16:43.121Z,-7.52
2019-02-20T05:19:09.390Z,-7.52
2019-02-20T05:21:35.679Z,-7.50
2019-02-20T05:24:01.963Z,-7.57
2019-02-20T05:26:28.276Z,-7.55
2019-02-20T05:28:54.565Z,-7.55
2019-02-20T05:31:20.863Z,-7.54
2019-02-20T05:33:47.146Z,-7.57
2019-02-20T05:36:13.440Z,-7.55
2019-02-20T05:38:39.716Z,-7.50
2019-02-20T05:41:06.016Z,-7.48
2019-02-20T05:43:32.289Z,-7.50
2019-02-20T05:45:58.559Z,-7.60
2019-02-20T05:48:24.866Z,-7.59
2019-02-20T05:50:51.149Z,-7.51
2019-02-20T05:53:17.476Z,-7.48
2019-02-20T05:55:43.786Z,-7.63
2019-02-20T05:58:10.093Z,-7.61
2019-02-20T06:00:36.371Z,-7.52
2019-02-20T06:03:04.795Z,-7.53
2019-02-20T06:05:30.882Z,-7.45
2019-02-20T06:07:57.184Z,-7.45
2019-02-20T06:10:23.461Z,-7.44
2019-02-20T06:12:49.780Z,-7.56
2019-02-20T06:15:16.063Z,-7.65
2019-02-20T06:17:42.489Z,-7.73
2019-02-20T06:20:50.076Z,-7.82
2019-02-20T06:23:16.389Z,-7.70
2019-02-20T06:25:42.728Z,-7.80
2019-02-20T06:28:09.076Z,-7.85
2019-02-20T06:30:35.368Z,-7.87
2019-02-20T06:33:01.683Z,-7.82
2019-02-20T06:35:27.912Z,-7.72
2019-02-20T06:37:54.164Z,-7.82
2019-02-20T06:40:20.412Z,-7.83
2019-02-20T06:42:46.685Z,-7.87
2019-02-20T06:45:12.912Z,-7.91
2019-02-20T06:47:39.173Z,-7.93
2019-02-20T06:53:18.999Z,-7.97
2019-02-20T06:55:45.230Z,-7.94
2019-02-20T06:58:11.498Z,-7.90
2019-02-20T07:00:37.729Z,-8.00
2019-02-20T07:03:03.980Z,-8.01
2019-02-20T07:12:24.068Z,-7.91
2019-02-20T07:15:31.655Z,-7.92
2019-02-20T07:18:37.403Z,-7.92
2019-02-20T07:21:43.155Z,-7.97
2019-02-20T07:30:23.654Z,-7.87
2019-02-20T07:32:49.897Z,-7.82
2019-02-20T07:35:16.141Z,-7.78
2019-02-20T07:37:42.449Z,-7.70
2019-02-20T07:40:08.671Z,-7.72
2019-02-20T07:42:34.909Z,-7.65
2019-02-20T07:45:01.157Z,-7.69
2019-02-20T07:47:27.406Z,-7.61
2019-02-20T07:49:53.640Z,-7.54
2019-02-20T07:52:19.884Z,-7.50
2019-02-20T07:54:46.149Z,-7.48
2019-02-20T07:57:12.392Z,-7.44
2019-02-20T07:59:38.643Z,-7.44
2019-02-20T08:02:04.883Z,-7.40
2019-02-20T08:04:31.143Z,-7.33
2019-02-20T08:06:57.369Z,-7.37
2019-02-20T08:09:23.614Z,-7.40
2019-02-20T08:11:49.835Z,-7.36
2019-02-20T08:14:16.084Z,-7.36
2019-02-20T08:16:51.763Z,-7.32
2019-02-20T08:19:10.478Z,-7.38
2019-02-20T08:21:36.722Z,-7.26
2019-02-20T08:24:02.976Z,-7.23
2019-02-20T08:26:29.216Z,-7.19
2019-02-20T08:28:55.475Z,-7.19
2019-02-20T08:31:21.718Z,-7.10
2019-02-20T08:33:47.959Z,-7.10
2019-02-20T08:36:14.200Z,-7.10
2019-02-20T08:38:40.442Z,-7.03
2019-02-20T08:41:06.682Z,-7.01
2019-02-20T08:43:32.949Z,-6.97
2019-02-20T08:45:59.170Z,-6.96
2019-02-20T08:48:26.537Z,-6.92
2019-02-20T08:50:53.590Z,-6.92
2019-02-20T08:53:19.805Z,-6.85
2019-02-20T08:55:46.077Z,-6.82
2019-02-20T08:58:12.312Z,-6.78
2019-02-20T09:00:38.565Z,-6.80
2019-02-20T09:03:04.804Z,-6.76
2019-02-20T09:05:31.087Z,-6.71
2019-02-20T09:07:57.319Z,-6.62
2019-02-20T09:10:23.604Z,-6.58
2019-02-20T09:12:49.809Z,-6.59
2019-02-20T09:15:16.060Z,-6.54
2019-02-20T09:17:42.279Z,-6.50
2019-02-20T09:20:49.833Z,-6.42
2019-02-20T09:23:16.076Z,-6.39
2019-02-20T09:25:42.329Z,-6.39
2019-02-20T09:28:08.569Z,-6.36
2019-02-20T09:30:34.820Z,-6.34
2019-02-20T09:33:01.073Z,-6.27
2019-02-20T09:35:27.303Z,-6.23
2019-02-20T09:37:53.534Z,-6.19
2019-02-20T09:40:19.807Z,-6.17
2019-02-20T09:43:05.786Z,-6.16
2019-02-20T09:45:41.427Z,-6.13
2019-02-20T09:48:00.181Z,-6.10
2019-02-20T09:50:26.434Z,-6.03
2019-02-20T09:52:53.022Z,-5.96
2019-02-20T09:55:19.341Z,-5.91
2019-02-20T09:57:45.543Z,-5.85
2019-02-20T10:00:31.531Z,-5.82
2019-02-20T10:02:57.769Z,-5.78
2019-02-20T10:05:24.034Z,-5.67
2019-02-20T10:07:50.283Z,-5.60
2019-02-20T10:10:16.514Z,-5.90
2019-02-20T10:12:42.769Z,-5.51
2019-02-20T10:18:09.428Z,-5.41
2019-02-20T10:20:35.686Z,-5.34
2019-02-20T10:23:01.907Z,-5.29
2019-02-20T10:25:28.159Z,-5.31
2019-02-20T10:27:54.396Z,-5.24
2019-02-20T10:30:20.640Z,-5.24
2019-02-20T10:32:46.900Z,-5.20
2019-02-20T10:35:13.119Z,-5.18
2019-02-20T10:37:39.370Z,-5.10
2019-02-20T10:40:27.153Z,-5.73
2019-02-20T10:42:53.402Z,-5.04
2019-02-20T10:45:19.627Z,-4.98
2019-02-20T10:47:45.885Z,-4.83
2019-02-20T10:53:25.431Z,-4.83
2019-02-20T10:55:51.677Z,-4.74
2019-02-20T10:58:17.917Z,-4.67
2019-02-20T11:00:44.166Z,-4.64
2019-02-20T11:03:10.529Z,-4.51
2019-02-20T11:05:36.789Z,-4.49
2019-02-20T11:08:03.050Z,-4.43
2019-02-20T11:10:29.269Z,-4.45
2019-02-20T11:12:55.507Z,-4.43
2019-02-20T11:15:21.733Z,-4.39
2019-02-20T11:17:47.967Z,-4.43
2019-02-20T11:20:14.209Z,-4.34
2019-02-20T11:22:40.442Z,-4.24
2019-02-20T11:28:26.841Z,-5.02
2019-02-20T11:30:48.527Z,-4.28
2019-02-20T11:33:14.827Z,-4.33
2019-02-20T11:38:28.635Z,-4.31
2019-02-20T11:40:54.883Z,-4.19
2019-02-20T11:43:21.413Z,-4.19
2019-02-20T11:45:49.257Z,-4.24
2019-02-20T11:48:15.502Z,-4.29
2019-02-20T11:50:41.725Z,-4.39
2019-02-20T11:53:07.976Z,-4.40
2019-02-20T11:55:34.201Z,-4.32
2019-02-20T11:58:01.085Z,-4.39
2019-02-20T12:00:28.600Z,-4.46
2019-02-20T12:02:54.844Z,-4.47
2019-02-20T12:05:21.095Z,-4.51
2019-02-20T12:07:47.333Z,-4.47
2019-02-20T12:10:54.999Z,-4.39
2019-02-20T12:13:21.269Z,-4.46
2019-02-20T12:15:47.493Z,-4.46
2019-02-20T12:18:17.387Z,-4.44
2019-02-20T12:20:41.986Z,-4.48
2019-02-20T12:23:08.234Z,-4.54
2019-02-20T12:25:34.490Z,-4.53
2019-02-20T12:28:00.732Z,-4.49
2019-02-20T12:30:26.993Z,-4.41
2019-02-20T12:32:53.229Z,-4.37
2019-02-20T12:37:53.298Z,-4.50
2019-02-20T12:40:19.546Z,-4.49
2019-02-20T12:42:45.771Z,-4.54
2019-02-20T12:45:12.032Z,-4.52
2019-02-20T12:47:38.257Z,-4.56
2019-02-20T12:50:45.818Z,-4.60
2019-02-20T12:53:12.070Z,-4.62
2019-02-20T12:55:38.325Z,-4.73
2019-02-20T12:58:04.555Z,-4.85
2019-02-20T13:00:30.820Z,-4.81
2019-02-20T13:02:57.075Z,-4.80
2019-02-20T13:05:23.337Z,-4.74
2019-02-20T13:10:37.181Z,-4.77
2019-02-20T13:13:03.407Z,-4.84
2019-02-20T13:15:29.669Z,-4.80
2019-02-20T13:17:55.929Z,-4.86
2019-02-20T13:20:22.154Z,-4.87
2019-02-20T13:22:48.379Z,-4.91
2019-02-20T13:25:14.619Z,-4.83
2019-02-20T13:27:40.851Z,-4.90
2019-02-20T13:30:48.399Z,-5.03
2019-02-20T13:33:14.643Z,-5.11
2019-02-20T13:35:40.891Z,-5.15
2019-02-20T13:38:07.132Z,-5.06
2019-02-20T13:40:33.375Z,-5.00
2019-02-20T13:42:59.616Z,-4.92
2019-02-20T13:45:25.869Z,-4.97
2019-02-20T13:47:52.120Z,-4.98
2019-02-20T13:50:20.286Z,-5.00
2019-02-20T13:52:52.329Z,-5.05
2019-02-20T13:55:14.679Z,-5.02
2019-02-20T13:57:40.921Z,-5.08
2019-02-20T14:03:04.000Z,-5.17
2019-02-20T14:05:30.257Z,-5.25
2019-02-20T14:07:56.494Z,-5.25
2019-02-20T14:10:22.732Z,-5.37
2019-02-20T14:12:48.982Z,-5.50
2019-02-20T14:15:15.207Z,-5.38
2019-02-20T14:17:41.466Z,-5.38
2019-02-20T14:23:08.194Z,-5.39
2019-02-20T14:25:36.318Z,-5.46
2019-02-20T14:28:02.598Z,-5.57
2019-02-20T14:30:28.826Z,-5.64
2019-02-20T14:32:55.075Z,-5.66
2019-02-20T14:35:23.218Z,-5.64
2019-02-20T14:37:49.480Z,-5.61
2019-02-20T14:40:15.769Z,-5.60
2019-02-20T14:42:42.066Z,-5.67
2019-02-20T14:45:28.053Z,-5.68
2019-02-20T14:47:54.302Z,-5.65
2019-02-20T14:50:20.639Z,-5.79
2019-02-20T14:52:46.908Z,-5.90
2019-02-20T14:55:13.143Z,-5.95
2019-02-20T14:57:39.419Z,-6.01
2019-02-20T15:00:25.395Z,-6.09
2019-02-20T15:02:51.645Z,-6.04
2019-02-20T15:05:19.791Z,-6.11
2019-02-20T15:07:46.039Z,-6.17
2019-02-20T15:10:12.385Z,-6.25
2019-02-20T15:12:38.634Z,-6.30
2019-02-20T15:15:47.441Z,-6.32
2019-02-20T15:18:14.324Z,-6.35
2019-02-20T15:20:40.569Z,-6.38
2019-02-20T15:23:06.819Z,-6.49
2019-02-20T15:25:33.062Z,-6.65
2019-02-20T15:27:59.299Z,-6.65
2019-02-20T15:30:25.524Z,-6.72
2019-02-20T15:32:53.691Z,-6.75
2019-02-20T15:35:19.935Z,-6.81
2019-02-20T15:37:46.202Z,-6.85
2019-02-20T15:40:12.454Z,-6.87
2019-02-20T15:42:38.707Z,-6.95
2019-02-20T15:45:46.252Z,-7.05
2019-02-20T15:48:12.548Z,-7.05
2019-02-20T15:50:38.799Z,-7.16
2019-02-20T15:53:06.898Z,-7.32
2019-02-20T15:55:33.192Z,-7.38
2019-02-20T15:57:59.463Z,-7.48
2019-02-20T16:03:13.318Z,-7.60
2019-02-20T16:05:39.566Z,-7.68
2019-02-20T16:08:07.254Z,-7.73
2019-02-20T16:10:34.832Z,-7.80
2019-02-20T16:13:02.260Z,-7.75
2019-02-20T16:15:28.523Z,-7.85
2019-02-20T16:17:56.686Z,-7.89
2019-02-20T16:20:22.932Z,-7.90
2019-02-20T16:22:49.263Z,-7.94
2019-02-20T16:25:15.617Z,-8.00
2019-02-20T16:27:47.263Z,-7.98
2019-02-20T16:30:51.311Z,-7.99
2019-02-20T16:33:17.566Z,-8.17
2019-02-20T16:35:43.815Z,-8.29
2019-02-20T16:38:10.055Z,-8.38
2019-02-20T16:40:36.309Z,-8.35
2019-02-20T16:43:03.862Z,-8.38
2019-02-20T16:45:30.700Z,-8.52
2019-02-20T16:47:56.936Z,-8.61
2019-02-20T16:50:23.187Z,-8.67
2019-02-20T16:52:49.430Z,-8.78
2019-02-20T16:55:57.006Z,-8.87
2019-02-20T16:58:23.245Z,-8.95
2019-02-20T17:03:23.312Z,-9.03
2019-02-20T17:05:49.668Z,-9.12
2019-02-20T17:11:15.527Z,-9.27
2019-02-20T17:13:41.784Z,-9.43
2019-02-20T17:16:08.047Z,-9.47
2019-02-20T17:18:34.296Z,-9.54
2019-02-20T17:21:00.548Z,-9.61
2019-02-20T17:23:26.780Z,-9.66
2019-02-20T17:25:53.228Z,-9.73
2019-02-20T17:28:19.459Z,-9.78
2019-02-20T17:30:45.708Z,-9.82
2019-02-20T17:33:11.944Z,-9.77
2019-02-20T17:35:38.205Z,-9.70
2019-02-20T17:40:52.078Z,-9.84
2019-02-20T17:43:18.305Z,-9.91
2019-02-20T17:45:44.556Z,-9.98
2019-02-20T17:48:10.799Z,-10.01
2019-02-20T17:50:37.043Z,-10.11
2019-02-20T17:53:03.275Z,-10.24
2019-02-20T17:55:29.541Z,-10.31
2019-02-20T17:57:55.794Z,-10.36
2019-02-20T18:00:43.720Z,-10.47
2019-02-20T18:03:09.976Z,-10.56
2019-02-20T18:05:36.210Z,-10.60
2019-02-20T18:08:02.471Z,-10.65
2019-02-20T18:10:28.709Z,-10.78
2019-02-20T18:12:54.954Z,-10.85
2019-02-20T18:15:21.190Z,-10.90
2019-02-20T18:17:47.436Z,-10.96
2019-02-20T18:20:13.671Z,-11.05
2019-02-20T18:22:39.922Z,-11.10
2019-02-20T18:28:24.561Z,-11.16
2019-02-20T18:30:47.753Z,-11.26
2019-02-20T18:33:14.017Z,-11.37
2019-02-20T18:35:40.258Z,-11.50
2019-02-20T18:38:06.514Z,-11.61
2019-02-20T18:40:34.660Z,-11.67
2019-02-20T18:43:00.887Z,-11.73
2019-02-20T18:45:27.218Z,-11.79
2019-02-20T18:47:53.483Z,-11.84
2019-02-20T18:50:19.716Z,-11.91
2019-02-20T18:52:45.968Z,-12.05
2019-02-20T18:55:53.505Z,-12.14
2019-02-20T18:58:19.764Z,-12.24
2019-02-20T19:00:46.093Z,-12.39
2019-02-20T19:03:12.361Z,-12.55
2019-02-20T19:05:38.611Z,-12.66
2019-02-20T19:08:46.148Z,-12.72
2019-02-20T19:18:07.143Z,-13.01
2019-02-20T19:21:14.670Z,-13.03
2019-02-20T19:24:20.434Z,-13.18
2019-02-20T19:27:28.017Z,-13.23
2019-02-20T19:33:34.688Z,-13.46
2019-02-20T19:39:41.037Z,-13.72
2019-02-20T19:42:48.586Z,-13.76
2019-02-20T19:49:00.663Z,-13.98
2019-02-20T19:58:20.375Z,-14.27
2019-02-20T20:07:28.045Z,-14.44
2019-02-20T20:13:30.130Z,-14.54
2019-02-20T20:22:37.380Z,-14.81
2019-02-20T20:25:44.953Z,-14.78
2019-02-20T20:34:52.131Z,-14.95
2019-02-20T20:40:51.235Z,-15.12
2019-02-20T20:47:10.632Z,-15.29
2019-02-20T20:50:16.396Z,-15.77
2019-02-20T20:53:22.125Z,-15.45
2019-02-20T20:56:27.877Z,-15.59
2019-02-20T20:59:33.608Z,-15.64
2019-02-20T21:05:56.365Z,-15.79
2019-02-20T21:09:04.023Z,-15.85
2019-02-20T21:12:10.444Z,-15.91
2019-02-20T21:15:16.235Z,-15.93
2019-02-20T21:18:23.793Z,-15.99
2019-02-20T21:27:26.301Z,-16.05
2019-02-20T21:36:33.698Z,-16.21
2019-02-20T21:39:39.438Z,-16.25
2019-02-20T21:48:47.388Z,-16.48
2019-02-20T21:51:53.139Z,-16.47
2019-02-20T22:16:03.844Z,-16.53
2019-02-20T22:21:59.716Z,-16.53
2019-02-20T22:31:07.521Z,-16.67
2019-02-20T22:34:15.074Z,-16.73
2019-02-20T22:37:20.652Z,-16.81
2019-02-20T22:40:26.436Z,-16.92
2019-02-20T22:43:33.956Z,-16.99
2019-02-20T22:49:53.638Z,-17.02
2019-02-20T22:52:59.387Z,-17.08
2019-02-20T22:59:06.394Z,-17.26
2019-02-20T23:02:13.941Z,-17.21
2019-02-20T23:16:59.788Z,-17.42
2019-02-20T23:19:26.015Z,-17.53
2019-02-20T23:21:52.250Z,-17.60
2019-02-20T23:24:18.503Z,-17.68
2019-02-20T23:26:44.753Z,-17.75
2019-02-20T23:29:10.986Z,-17.79
2019-02-20T23:31:37.215Z,-17.79
2019-02-20T23:34:03.469Z,-17.81
2019-02-20T23:36:29.707Z,-17.88
2019-02-20T23:38:55.948Z,-18.06
2019-02-20T23:41:22.179Z,-18.16
2019-02-20T23:43:48.423Z,-18.23
2019-02-20T23:46:14.653Z,-18.25
2019-02-20T23:48:40.905Z,-18.37
2019-02-20T23:51:07.139Z,-18.39
2019-02-20T23:53:33.376Z,-18.41
2019-02-20T23:55:59.625Z,-18.52
2019-02-20T23:58:25.875Z,-18.54
